Dades meteomassalio
 
Diari Summary for Agost 16, 2018 Units:  Metric    English   Both
« Previous Day
Next Day »
Diari Semanal Mensual Anual Personalitzat
  Actual: Maxima: Minima: Mijana:
Temperatura: -2.7 °C -17.8 °C -9.1 °C -7.2 °C
Rosada: -7.3 °C -17.8 °C -10.7 °C -9.5 °C
Humitat: 60 % Humidity % 60 % 77 %
Velocitat del vent: 0 km/h 0 km/h 0 km/h 0 km/h
Racha vent: 0 km/h 0 km/h - -
Vent:Calm - - North
Pressio: 34401.8 hPa 0 hPa 34401.8 hPa -
Pluja: 0 mm      
Historical Graphs
 
 
Tabular Data for Agost 16, 2018
Time Temperature Dew Point Pressure Wind Wind Speed Wind Gust Humidity Rainfall Rate (Hourly) solar Conditions
-17.8 °C -17.8 °C 0 hPa Calm     Humidity % 0 mm SolarRadiationWatts/m^2 W/m2 Conditions
00:04 -6.3 °C -9.6 °C 34439 hPa Calm     69 % 0 mm 0.00 W/m2 CLR
00:09 -6.3 °C -9.6 °C 34435.6 hPa Calm     69 % 0 mm 0.00 W/m2 CLR
00:14 -6.7 °C -9.8 °C 34435.6 hPa Calm     70 % 0 mm 0.00 W/m2 CLR
00:19 -6.7 °C -9.8 °C 34435.6 hPa Calm     70 % 0 mm 0.00 W/m2 CLR
00:24 -6.7 °C -9.7 °C 34435.6 hPa Calm     71 % 0 mm 0.00 W/m2 CLR
00:29 -6.7 °C -9.7 °C 34435.6 hPa Calm     71 % 0 mm 0.00 W/m2 CLR
00:34 -7 °C -9.9 °C 34435.6 hPa Calm     71 % 0 mm 0.00 W/m2 CLR
00:39 -7 °C -9.8 °C 34435.6 hPa Calm     72 % 0 mm 0.00 W/m2 CLR
00:44 -7 °C -9.8 °C 34432.2 hPa Calm     72 % 0 mm 0.00 W/m2 CLR
00:49 -7 °C -9.7 °C 34435.6 hPa Calm     73 % 0 mm 0.00 W/m2 CLR
00:54 -7.3 °C -10.1 °C 34435.6 hPa Calm     73 % 0 mm 0.00 W/m2 CLR
00:59 -7.3 °C -10.1 °C 34435.6 hPa Calm     73 % 0 mm 0.00 W/m2 CLR
01:04 -7.3 °C -9.9 °C 34439 hPa Calm     74 % 0 mm 0.00 W/m2 CLR
01:09 -7.3 °C -9.9 °C 34439 hPa Calm     74 % 0 mm 0.00 W/m2 CLR
01:14 -7.6 °C -10.2 °C 34442.4 hPa Calm     74 % 0 mm 0.00 W/m2 CLR
01:19 -7.6 °C -10.1 °C 34442.4 hPa Calm     75 % 0 mm 0.00 W/m2 CLR
01:24 -7.6 °C -10.1 °C 34439 hPa Calm     75 % 0 mm 0.00 W/m2 CLR
01:29 -7.6 °C -10.2 °C 34442.4 hPa Calm     74 % 0 mm 0.00 W/m2 CLR
01:34 -7.6 °C -10.2 °C 34439 hPa Calm     74 % 0 mm 0.00 W/m2 CLR
01:39 -7.6 °C -10.2 °C 34439 hPa Calm     74 % 0 mm 0.00 W/m2 CLR
01:44 -7.6 °C -10.2 °C 34435.6 hPa Calm     74 % 0 mm 0.00 W/m2 CLR
01:49 -7.9 °C -10.4 °C 34439 hPa Calm     75 % 0 mm 0.00 W/m2 CLR
01:54 -7.9 °C -10.3 °C 34439 hPa Calm     76 % 0 mm 0.00 W/m2 CLR
01:59 -7.9 °C -10.1 °C 34439 hPa Calm     78 % 0 mm 0.00 W/m2 CLR
02:04 -7.9 °C -10.2 °C 34435.6 hPa Calm     77 % 0 mm 0.00 W/m2 CLR
02:09 -7.9 °C -10.2 °C 34435.6 hPa Calm     77 % 0 mm 0.00 W/m2 CLR
02:14 -7.9 °C -10.1 °C 34435.6 hPa Calm     78 % 0 mm 0.00 W/m2 CLR
02:19 -7.9 °C -10.1 °C 34435.6 hPa Calm     78 % 0 mm 0.00 W/m2 CLR
02:24 -7.9 °C -10.1 °C 34435.6 hPa Calm     78 % 0 mm 0.00 W/m2 CLR
02:29 -8.2 °C -10.4 °C 34435.6 hPa Calm     78 % 0 mm 0.00 W/m2 CLR
02:34 -8.2 °C -10.4 °C 34432.2 hPa Calm     78 % 0 mm 0.00 W/m2 CLR
02:39 -8.2 °C -10.4 °C 34435.6 hPa Calm     78 % 0 mm 0.00 W/m2 CLR
02:44 -8.2 °C -10.4 °C 34432.2 hPa Calm     78 % 0 mm 0.00 W/m2 CLR
02:49 -8.2 °C -10.4 °C 34428.8 hPa Calm     78 % 0 mm 0.00 W/m2 CLR
02:54 -8.2 °C -10.2 °C 34428.8 hPa Calm     79 % 0 mm 0.00 W/m2 CLR
02:59 -8.2 °C -10.2 °C 34428.8 hPa Calm     79 % 0 mm 0.00 W/m2 CLR
03:04 -8.2 °C -10.2 °C 34428.8 hPa Calm     79 % 0 mm 0.00 W/m2 CLR
03:09 -8.2 °C -10.2 °C 34425.5 hPa Calm     79 % 0 mm 0.00 W/m2 CLR
03:14 -8.5 °C -10.6 °C 34428.8 hPa Calm     79 % 0 mm 0.00 W/m2 CLR
03:19 -8.5 °C -10.6 °C 34425.5 hPa Calm     79 % 0 mm 0.00 W/m2 CLR
03:24 -8.5 °C -10.4 °C 34422.1 hPa Calm     80 % 0 mm 0.00 W/m2 CLR
03:29 -8.5 °C -10.3 °C 34422.1 hPa Calm     81 % 0 mm 0.00 W/m2 CLR
03:34 -8.5 °C -10.3 °C 34418.7 hPa Calm     81 % 0 mm 0.00 W/m2 CLR
03:39 -8.5 °C -10.3 °C 34418.7 hPa Calm     81 % 0 mm 0.00 W/m2 CLR
03:44 -8.5 °C -10.3 °C 34418.7 hPa Calm     81 % 0 mm 0.00 W/m2 CLR
03:49 -8.5 °C -10.3 °C 34415.3 hPa Calm     81 % 0 mm 0.00 W/m2 CLR
03:54 -8.5 °C -10.3 °C 34418.7 hPa Calm     81 % 0 mm 0.00 W/m2 CLR
03:59 -8.8 °C -10.7 °C 34415.3 hPa Calm     81 % 0 mm 0.00 W/m2 CLR
04:04 -8.8 °C -10.7 °C 34415.3 hPa Calm     81 % 0 mm 0.00 W/m2 CLR
04:09 -8.8 °C -10.5 °C 34415.3 hPa Calm     82 % 0 mm 0.00 W/m2 CLR
04:14 -8.8 °C -10.5 °C 34418.7 hPa Calm     82 % 0 mm 0.00 W/m2 CLR
04:19 -8.8 °C -10.7 °C 34415.3 hPa Calm     81 % 0 mm 0.00 W/m2 CLR
04:24 -8.8 °C -10.5 °C 34415.3 hPa Calm     82 % 0 mm 0.00 W/m2 CLR
04:29 -8.8 °C -10.5 °C 34411.9 hPa Calm     82 % 0 mm 0.00 W/m2 CLR
04:34 -8.8 °C -10.5 °C 34415.3 hPa Calm     82 % 0 mm 0.00 W/m2 CLR
04:39 -8.8 °C -10.5 °C 34411.9 hPa Calm     82 % 0 mm 0.00 W/m2 CLR
04:44 -8.8 °C -10.5 °C 34415.3 hPa Calm     82 % 0 mm 0.00 W/m2 CLR
04:49 -8.8 °C -10.4 °C 34411.9 hPa Calm     83 % 0 mm 0.00 W/m2 CLR
04:54 -8.8 °C -10.4 °C 34411.9 hPa Calm     83 % 0 mm 0.00 W/m2 CLR
04:59 -8.8 °C -10.4 °C 34408.5 hPa Calm     83 % 0 mm 0.00 W/m2 CLR
05:04 -8.8 °C -10.4 °C 34411.9 hPa Calm     83 % 0 mm 0.00 W/m2 CLR
05:09 -8.8 °C -10.4 °C 34408.5 hPa Calm     83 % 0 mm 0.00 W/m2 CLR
05:14 -8.8 °C -10.4 °C 34411.9 hPa Calm     83 % 0 mm 0.00 W/m2 CLR
05:19 -8.8 °C -10.4 °C 34411.9 hPa Calm     83 % 0 mm 0.00 W/m2 CLR
05:24 -8.8 °C -10.4 °C 34411.9 hPa Calm     83 % 0 mm 0.00 W/m2 CLR
05:29 -8.8 °C -10.4 °C 34411.9 hPa Calm     83 % 0 mm 0.00 W/m2 CLR
05:34 -8.8 °C -10.4 °C 34408.5 hPa Calm     83 % 0 mm 0.00 W/m2 CLR
05:39 -8.8 °C -10.4 °C 34411.9 hPa Calm     83 % 0 mm 0.00 W/m2 CLR
05:44 -9.1 °C -10.7 °C 34415.3 hPa Calm     83 % 0 mm 0.00 W/m2 CLR
05:49 -9.1 °C -10.6 °C 34415.3 hPa Calm     84 % 0 mm 0.00 W/m2 CLR
05:54 -9.1 °C -10.6 °C 34411.9 hPa Calm     84 % 0 mm 0.00 W/m2 CLR
05:59 -8.8 °C -10.2 °C 34411.9 hPa Calm     85 % 0 mm 0.00 W/m2 CLR
06:03 -8.8 °C -10.2 °C 34411.9 hPa Calm     85 % 0 mm 0.00 W/m2 CLR
06:06 -8.8 °C -10.3 °C 34411.9 hPa Calm     84 % 0 mm 0.00 W/m2 CLR
06:14 -8.8 °C -10.2 °C 34408.5 hPa Calm     85 % 0 mm 0.00 W/m2 CLR
06:19 -8.8 °C -10.2 °C 34408.5 hPa Calm     85 % 0 mm 0.00 W/m2 CLR
06:24 -9.1 °C -10.5 °C 34408.5 hPa Calm     85 % 0 mm 0.00 W/m2 CLR
06:29 -9.1 °C -10.5 °C 34408.5 hPa Calm     85 % 0 mm 0.00 W/m2 CLR
06:34 -9.1 °C -10.5 °C 34411.9 hPa Calm     85 % 0 mm 0.00 W/m2 CLR
06:39 -9.1 °C -10.5 °C 34415.3 hPa Calm     85 % 0 mm 0.00 W/m2 CLR
06:44 -9.1 °C -10.5 °C 34415.3 hPa Calm     85 % 0 mm 0.00 W/m2 CLR
06:49 -9.1 °C -10.5 °C 34418.7 hPa Calm     85 % 0 mm 0.00 W/m2 CLR
06:54 -9.1 °C -10.5 °C 34418.7 hPa Calm     85 % 0 mm 0.00 W/m2 CLR
06:59 -9.1 °C -10.5 °C 34418.7 hPa Calm     85 % 0 mm 5.00 W/m2 CLR
07:04 -9.1 °C -10.5 °C 34422.1 hPa Calm     85 % 0 mm 7.00 W/m2 OVC
07:09 -9.1 °C -10.5 °C 34425.5 hPa Calm     85 % 0 mm 5.00 W/m2 OVC
07:14 -9.1 °C -10.5 °C 34428.8 hPa Calm     85 % 0 mm 11.00 W/m2 BKN
07:19 -9.1 °C -10.4 °C 34428.8 hPa Calm     86 % 0 mm 21.00 W/m2 BKN
07:24 -8.8 °C -10.1 °C 34425.5 hPa Calm     86 % 0 mm 16.00 W/m2 BKN
07:29 -8.8 °C -10.1 °C 34425.5 hPa Calm     86 % 0 mm 21.00 W/m2 BKN
07:34 -8.8 °C -10.1 °C 34425.5 hPa Calm     86 % 0 mm 25.00 W/m2 BKN
07:39 -8.8 °C -10.1 °C 34422.1 hPa Calm     86 % 0 mm 30.00 W/m2 BKN
07:44 -8.8 °C -10.1 °C 34418.7 hPa Calm     86 % 0 mm 40.00 W/m2 BKN
07:49 -8.5 °C -9.8 °C 34415.3 hPa Calm     86 % 0 mm 56.00 W/m2 SCT
07:54 -8.5 °C -9.8 °C 34422.1 hPa Calm     86 % 0 mm 74.00 W/m2 FEW
07:59 -8.5 °C -9.9 °C 34422.1 hPa Calm     85 % 0 mm 86.00 W/m2 FEW
08:04 -8.5 °C -9.9 °C 34418.7 hPa Calm     85 % 0 mm 109.00 W/m2 CLR
08:09 -8.2 °C -9.6 °C 34418.7 hPa Calm     85 % 0 mm 123.00 W/m2 CLR
08:14 -7.9 °C -9.4 °C 34418.7 hPa Calm     84 % 0 mm 155.00 W/m2 CLR
08:19 -7.6 °C -9.2 °C 34418.7 hPa Calm     83 % 0 mm 195.00 W/m2 CLR
08:24 -7.3 °C -8.9 °C 34418.7 hPa Calm     83 % 0 mm 213.00 W/m2 CLR
08:29 -7 °C -8.8 °C 34418.7 hPa Calm     81 % 0 mm 246.00 W/m2 CLR
08:34 -7 °C -8.9 °C 34418.7 hPa Calm     80 % 0 mm 229.00 W/m2 CLR
08:39 -6.7 °C -8.7 °C 34415.3 hPa Calm     80 % 0 mm 165.00 W/m2 CLR
08:44 -6.7 °C -8.8 °C 34418.7 hPa Calm     79 % 0 mm 185.00 W/m2 CLR
08:49 -6.3 °C -8.6 °C 34418.7 hPa Calm     78 % 0 mm 251.00 W/m2 CLR
08:54 -6.3 °C -8.7 °C 34418.7 hPa Calm     77 % 0 mm 294.00 W/m2 CLR
08:59 -6.1 °C -8.4 °C 34418.7 hPa Calm     77 % 0 mm 244.00 W/m2 CLR
09:04 -5.7 °C -8.2 °C 34418.7 hPa Calm     76 % 0 mm 236.00 W/m2 CLR
09:09 -5.7 °C -8.4 °C 34415.3 hPa Calm     74 % 0 mm 297.00 W/m2 CLR
09:14 -5.4 °C -8.1 °C 34415.3 hPa Calm     74 % 0 mm 190.00 W/m2 CLR
09:19 -5.4 °C -8.2 °C 34418.7 hPa Calm     73 % 0 mm 190.00 W/m2 CLR
09:24 -5.1 °C -8.1 °C 34418.7 hPa Calm     72 % 0 mm 190.00 W/m2 CLR
09:29 -5.1 °C -7.9 °C 34422.1 hPa Calm     73 % 0 mm 202.00 W/m2 CLR
09:34 -4.8 °C -7.8 °C 34422.1 hPa Calm     72 % 0 mm 192.00 W/m2 CLR
09:39 -4.8 °C -7.8 °C 34422.1 hPa Calm     72 % 0 mm 193.00 W/m2 CLR
09:44 -4.8 °C -7.7 °C 34422.1 hPa Calm     73 % 0 mm 183.00 W/m2 CLR
09:49 -4.5 °C -7.3 °C 34422.1 hPa Calm     73 % 0 mm 204.00 W/m2 CLR
09:54 -4.5 °C -7.3 °C 34425.5 hPa Calm     73 % 0 mm 262.00 W/m2 CLR
09:59 -4.5 °C -7.4 °C 34422.1 hPa Calm     72 % 0 mm 250.00 W/m2 CLR
10:04 -4.2 °C -7.3 °C 34422.1 hPa Calm     71 % 0 mm 332.00 W/m2 CLR
10:09 -4.2 °C -7.3 °C 34422.1 hPa Calm     71 % 0 mm 327.00 W/m2 CLR
10:14 -3.9 °C -7 °C 34418.7 hPa Calm     71 % 0 mm 269.00 W/m2 CLR
10:19 -3.9 °C -7 °C 34422.1 hPa Calm     71 % 0 mm 250.00 W/m2 CLR
10:24 -3.9 °C -7.1 °C 34422.1 hPa Calm     70 % 0 mm 258.00 W/m2 CLR
10:29 -3.6 °C -7 °C 34422.1 hPa Calm     69 % 0 mm 274.00 W/m2 CLR
10:34 -3.6 °C -7.1 °C 34422.1 hPa Calm     68 % 0 mm 283.00 W/m2 CLR
10:39 -3.6 °C -7.1 °C 34422.1 hPa Calm     68 % 0 mm 308.00 W/m2 CLR
10:44 -3.6 °C -7.2 °C 34418.7 hPa Calm     67 % 0 mm 334.00 W/m2 CLR
10:49 -3.6 °C -7.2 °C 34418.7 hPa Calm     67 % 0 mm 378.00 W/m2 CLR
10:54 -3.3 °C -7.1 °C 34418.7 hPa Calm     66 % 0 mm 401.00 W/m2 CLR
10:59 -3.3 °C -7.1 °C 34418.7 hPa Calm     66 % 0 mm 401.00 W/m2 CLR
11:04 -3.3 °C -7.1 °C 34418.7 hPa Calm     66 % 0 mm 385.00 W/m2 CLR
11:09 -2.9 °C -6.8 °C 34418.7 hPa Calm     66 % 0 mm 401.00 W/m2 CLR
11:14 -2.9 °C -6.9 °C 34415.3 hPa Calm     65 % 0 mm 434.00 W/m2 CLR
11:19 -2.9 °C -6.9 °C 34415.3 hPa Calm     65 % 0 mm 420.00 W/m2 CLR
11:24 -2.9 °C -6.9 °C 34415.3 hPa Calm     65 % 0 mm 464.00 W/m2 CLR
11:29 -2.7 °C -6.8 °C 34415.3 hPa Calm     64 % 0 mm 522.00 W/m2 CLR
11:34 -2.7 °C -6.9 °C 34411.9 hPa Calm     63 % 0 mm 559.00 W/m2 CLR
11:39 -2.7 °C -7.2 °C 34411.9 hPa Calm     61 % 0 mm 580.00 W/m2 CLR
11:44 -2.7 °C -7.3 °C 34408.5 hPa Calm     60 % 0 mm 626.00 W/m2 CLR
11:49 -2.7 °C -7.3 °C 34401.8 hPa Calm     60 % 0 mm 621.00 W/m2 CLR
Lo Temps de Massalio
Compliments of Weather Underground - 768 kb